Terminal Aerodrome Forecast
Issued by NWS Blacksburg, VA

Home | Current Version | Previous Version | Text Only | Print | Product List | Glossary On
Versions: 1 2 3 4 5 6 7 8 9 10 11 12 13 14 15 16 17 18 19 20 21 22 23 24 25 26 27 28 29 30 31 32
316
FTUS41 KRNK 240059 AAA
TAFLYH
TAF AMD
KLYH 240059Z 2401/2424 21010G20KT P6SM BKN040 BKN050
     FM240500 20010KT P6SM -SHRA OVC050
      TEMPO 2406/2409 4SM SHRA OVC035
     FM241100 21013KT P6SM OVC030
     FM241400 24007KT P6SM BKN040
     FM241700 25010KT P6SM SCT060=

USA.gov is the U.S. government's official web portal to all federal, state and local government web resources and services.